Time;durP1;ratioP1;P1;durP2;ratioP2;P2;SDS_P1;SDS_P2;PMS_P1;PMS_P2;Temp;Humidity;BMP_temperature;BMP_pressure;BME280_temperature;BME280_humidity;BME280_pressure;Samples;Min_cycle;Max_cycle;Signal;HPM_P1;HPM_P2
2021/05/05 00:00:31;;;;;;;8.90;3.90;;;;;;;13.64;65.75;99843.09;5027181;28;20386;-22
2021/05/05 00:02:56;;;;;;;7.35;4.55;;;;;;;13.65;65.58;99849.28;5027373;28;20029;-21
2021/05/05 00:05:22;;;;;;;6.72;4.53;;;;;;;13.67;65.32;99831.09;5027448;28;20108;-22
2021/05/05 00:07:48;;;;;;;8.32;4.78;;;;;;;13.85;65.11;99838.03;5027409;28;20027;-22
2021/05/05 00:10:14;;;;;;;13.45;4.63;;;;;;;14.09;64.35;99841.34;5027067;28;20029;-21
2021/05/05 00:12:40;;;;;;;7.15;4.03;;;;;;;14.15;63.95;99836.88;5027399;28;20029;-21
2021/05/05 00:15:26;;;;;;;7.88;4.30;;;;;;;14.21;63.15;99836.66;5027240;28;20034;-20
2021/05/05 00:17:51;;;;;;;8.52;3.95;;;;;;;13.83;64.78;99834.78;5026716;28;20148;-20
2021/05/05 00:20:17;;;;;;;9.23;4.55;;;;;;;13.81;64.53;99837.75;5027011;28;20083;-21
2021/05/05 00:22:43;;;;;;;6.80;4.28;;;;;;;13.77;64.61;99825.06;5027287;28;20025;-22
2021/05/05 00:25:09;;;;;;;6.15;4.78;;;;;;;13.96;64.26;99834.47;5027443;28;20041;-22
2021/05/05 00:27:34;;;;;;;9.30;4.40;;;;;;;13.95;63.67;99819.41;5026916;28;20498;-21
2021/05/05 00:30:00;;;;;;;8.27;4.13;;;;;;;13.90;63.97;99814.00;5027122;28;20036;-21
2021/05/05 00:32:25;;;;;;;8.95;4.80;;;;;;;13.95;64.05;99824.78;5026856;28;20061;-22
2021/05/05 00:34:51;;;;;;;10.10;4.90;;;;;;;14.12;63.79;99821.25;5027162;28;20551;-22
2021/05/05 00:37:16;;;;;;;6.60;4.32;;;;;;;13.90;63.76;99808.66;5027031;28;20026;-21
2021/05/05 00:39:42;;;;;;;7.35;4.40;;;;;;;14.03;63.53;99819.00;5027121;28;20560;-22
2021/05/05 00:42:07;;;;;;;7.05;4.18;;;;;;;14.05;63.34;99814.19;5026961;28;20044;-21
2021/05/05 00:44:33;;;;;;;8.88;4.70;;;;;;;13.99;63.88;99817.06;5026961;28;20461;-22
2021/05/05 00:46:59;;;;;;;6.35;4.45;;;;;;;13.82;64.40;99817.09;5027073;28;20029;-20
2021/05/05 00:49:25;;;;;;;8.15;4.43;;;;;;;13.98;63.91;99810.91;5027037;28;20053;-22
2021/05/05 00:51:50;;;;;;;8.38;5.03;;;;;;;13.97;64.15;99820.00;5026867;28;20025;-21
2021/05/05 00:54:16;;;;;;;8.30;4.68;;;;;;;13.68;64.80;99815.81;5025715;28;20030;-20
2021/05/05 00:56:42;;;;;;;9.20;5.00;;;;;;;13.68;64.77;99815.81;5026909;28;20040;-20
2021/05/05 00:59:08;;;;;;;8.23;5.00;;;;;;;13.70;64.13;99808.34;5025755;28;20144;-22
2021/05/05 01:01:33;;;;;;;6.88;4.80;;;;;;;13.66;64.58;99810.72;5026850;28;20223;-22
2021/05/05 01:03:58;;;;;;;7.85;4.68;;;;;;;13.90;63.57;99814.00;5026917;28;20040;-21
2021/05/05 01:06:24;;;;;;;8.98;4.32;;;;;;;13.79;63.76;99814.91;5026547;28;20515;-22
2021/05/05 01:08:49;;;;;;;6.60;4.50;;;;;;;13.59;64.18;99805.53;5025576;28;20038;-22
2021/05/05 01:11:15;;;;;;;7.72;4.50;;;;;;;13.79;63.77;99815.75;5026597;28;20064;-21
2021/05/05 01:13:42;;;;;;;8.35;4.57;;;;;;;13.92;63.34;99817.25;5026644;28;20037;-22
2021/05/05 01:16:07;;;;;;;8.25;4.80;;;;;;;13.94;63.18;99828.53;5026775;28;20025;-21
2021/05/05 01:18:33;;;;;;;8.57;5.22;;;;;;;14.03;63.25;99835.09;5026532;28;20413;-21
2021/05/05 01:20:59;;;;;;;7.43;4.63;;;;;;;14.36;62.41;99849.47;5026812;28;20037;-21
2021/05/05 01:23:25;;;;;;;7.38;4.95;;;;;;;14.34;62.23;99843.53;5026599;28;20083;-21
2021/05/05 01:25:50;;;;;;;8.43;5.50;;;;;;;14.33;62.72;99839.25;5026421;28;20022;-22
2021/05/05 01:28:16;;;;;;;9.15;4.82;;;;;;;14.51;62.05;99848.84;5026660;28;20029;-21
2021/05/05 01:30:41;;;;;;;9.88;5.30;;;;;;;14.52;61.92;99846.97;5028915;28;20021;-21
2021/05/05 01:33:07;;;;;;;9.07;4.63;;;;;;;14.22;62.38;99837.47;5030376;28;20041;-20
2021/05/05 01:35:32;;;;;;;7.65;4.93;;;;;;;14.83;61.15;99854.38;5029274;28;20481;-21
2021/05/05 01:37:58;;;;;;;8.60;4.60;;;;;;;14.61;61.43;99854.38;5030221;28;20041;-22
2021/05/05 01:40:29;;;;;;;8.30;5.18;;;;;;;14.66;60.99;99859.00;5029817;28;20026;-22
2021/05/05 01:42:55;;;;;;;7.60;4.93;;;;;;;14.37;62.12;99855.66;5030476;28;20044;-20
2021/05/05 01:45:21;;;;;;;7.25;5.22;;;;;;;14.58;61.79;99862.13;5030234;28;20037;-20
2021/05/05 01:47:46;;;;;;;9.30;5.05;;;;;;;14.75;61.41;99856.66;5030163;28;20903;-22
2021/05/05 01:50:12;;;;;;;9.70;5.47;;;;;;;14.41;61.76;99822.72;5029641;28;20049;-21
2021/05/05 01:52:37;;;;;;;8.23;5.32;;;;;;;14.41;62.09;99830.75;5029815;28;20505;-21
2021/05/05 01:55:04;;;;;;;8.85;5.15;;;;;;;14.24;62.79;99830.00;5028432;28;20473;-21
2021/05/05 01:57:30;;;;;;;8.43;4.88;;;;;;;14.44;62.47;99838.31;5029879;28;20061;-22
2021/05/05 01:59:56;;;;;;;7.07;5.10;;;;;;;14.24;62.79;99819.25;5030005;28;20516;-22
2021/05/05 02:02:22;;;;;;;9.85;5.70;;;;;;;14.29;62.43;99805.94;5029488;28;20033;-21
2021/05/05 02:04:47;;;;;;;8.30;5.20;;;;;;;13.94;63.64;99815.13;5029686;28;20036;-21
2021/05/05 02:07:13;;;;;;;8.40;5.93;;;;;;;14.04;63.83;99814.47;5029555;28;20030;-22
2021/05/05 02:09:39;;;;;;;10.77;5.10;;;;;;;13.83;64.40;99802.63;5029526;28;20037;-22
2021/05/05 02:12:04;;;;;;;8.57;5.50;;;;;;;13.97;64.02;99806.59;5029979;28;20496;-25
2021/05/05 02:14:30;;;;;;;9.93;5.32;;;;;;;14.09;63.53;99793.06;5029288;28;20033;-22
2021/05/05 02:16:59;;;;;;;7.63;5.30;;;;;;;13.84;64.12;99798.91;5029581;28;20037;-21
2021/05/05 02:19:24;;;;;;;8.48;5.63;;;;;;;13.94;63.97;99785.66;5029478;28;20029;-22
2021/05/05 02:21:50;;;;;;;8.77;5.88;;;;;;;14.13;63.61;99790.72;5029573;28;20029;-21
2021/05/05 02:24:15;;;;;;;9.70;5.57;;;;;;;13.75;64.38;99778.94;5028878;28;20034;-21
2021/05/05 02:26:41;;;;;;;9.82;4.93;;;;;;;13.54;65.50;99769.81;5029312;28;20060;-20
2021/05/05 02:29:06;;;;;;;10.07;5.88;;;;;;;13.69;64.42;99766.53;5029405;28;20053;-21
2021/05/05 02:31:32;;;;;;;8.60;5.55;;;;;;;13.51;65.33;99763.06;5028185;28;20117;-21
2021/05/05 02:33:58;;;;;;;8.93;5.70;;;;;;;13.31;66.42;99760.88;5029044;28;20857;-21
2021/05/05 02:36:23;;;;;;;9.07;5.47;;;;;;;13.21;66.34;99763.38;5028781;28;20098;-21
2021/05/05 02:38:48;;;;;;;8.35;5.93;;;;;;;13.21;66.50;99764.19;5028939;28;20037;-21
2021/05/05 02:41:14;;;;;;;10.60;5.45;;;;;;;13.31;66.42;99773.47;5028283;28;20033;-22
2021/05/05 02:43:39;;;;;;;7.75;5.32;;;;;;;13.24;66.04;99763.72;5028920;28;20041;-22
2021/05/05 02:46:05;;;;;;;8.98;5.45;;;;;;;13.33;65.91;99772.16;5028939;28;20493;-21
2021/05/05 02:48:30;;;;;;;7.68;5.28;;;;;;;13.29;65.64;99770.19;5028531;28;20037;-22
2021/05/05 02:50:56;;;;;;;8.98;5.20;;;;;;;13.05;66.83;99773.03;5028367;28;20064;-21
2021/05/05 02:53:21;;;;;;;8.38;5.45;;;;;;;13.18;66.67;99770.03;5028663;28;20037;-22
2021/05/05 02:55:47;;;;;;;13.75;6.53;;;;;;;13.33;65.49;99782.09;5028948;28;20095;-22
2021/05/05 02:58:12;;;;;;;13.70;5.70;;;;;;;13.51;64.60;99781.81;5028404;28;20033;-21
2021/05/05 03:00:38;;;;;;;8.40;5.40;;;;;;;13.44;64.05;99757.06;5027364;28;20397;-20
2021/05/05 03:03:03;;;;;;;8.50;5.82;;;;;;;13.48;64.04;99770.78;5028762;28;20033;-20
2021/05/05 03:05:29;;;;;;;10.63;5.53;;;;;;;13.33;65.08;99764.13;5027437;28;20099;-22
2021/05/05 03:07:54;;;;;;;8.27;5.35;;;;;;;13.10;65.92;99773.13;5028406;28;20758;-22
2021/05/05 03:10:20;;;;;;;9.85;5.63;;;;;;;13.24;65.53;99777.09;5028284;28;20033;-22
2021/05/05 03:12:45;;;;;;;11.13;5.80;;;;;;;13.14;65.30;99774.25;5027289;28;20029;-22
2021/05/05 03:15:11;;;;;;;7.80;4.70;;;;;;;13.06;64.96;99767.44;5028361;28;20041;-21
2021/05/05 03:17:37;;;;;;;10.23;6.65;;;;;;;12.89;65.84;99766.59;5028102;28;20044;-22
2021/05/05 03:20:07;;;;;;;15.93;5.90;;;;;;;13.11;65.19;99793.47;5028364;28;20031;-22
2021/05/05 03:22:33;;;;;;;8.30;4.97;;;;;;;13.16;65.11;99787.41;5027904;28;20112;-22
2021/05/05 03:24:58;;;;;;;8.43;4.53;;;;;;;13.14;64.94;99790.31;5028175;28;20057;-21
2021/05/05 03:27:24;;;;;;;7.15;4.85;;;;;;;13.16;64.87;99796.25;5027115;28;20030;-22
2021/05/05 03:29:49;;;;;;;9.77;5.15;;;;;;;13.33;64.92;99792.78;5010337;28;20516;-22
2021/05/05 03:32:15;;;;;;;8.43;5.13;;;;;;;13.13;65.43;99790.56;5027932;28;20025;-22
2021/05/05 03:34:40;;;;;;;7.60;5.22;;;;;;;12.75;65.75;99782.16;5027417;28;20033;-22
2021/05/05 03:37:06;;;;;;;9.05;5.55;;;;;;;13.12;65.57;99796.94;5027682;28;20088;-21
2021/05/05 03:39:31;;;;;;;9.27;4.97;;;;;;;13.10;65.33;99783.81;5026807;28;20426;-22
2021/05/05 03:41:57;;;;;;;9.18;5.05;;;;;;;13.45;64.50;99777.44;5027951;28;20022;-21
2021/05/05 03:44:22;;;;;;;8.15;4.95;;;;;;;13.36;64.07;99793.13;5027659;28;20090;-22
2021/05/05 03:46:47;;;;;;;9.60;5.70;;;;;;;13.50;64.13;99804.31;5027948;28;20092;-21
2021/05/05 03:49:13;;;;;;;7.82;4.25;;;;;;;13.55;63.74;99796.34;5027653;28;20050;-22
2021/05/05 03:51:38;;;;;;;10.20;5.00;;;;;;;13.68;63.00;99797.06;5027746;28;20091;-22
2021/05/05 03:54:04;;;;;;;7.82;4.40;;;;;;;13.50;63.51;99798.13;5027774;28;20033;-22
2021/05/05 03:56:30;;;;;;;7.70;4.63;;;;;;;13.26;64.96;99801.78;5027473;28;20111;-22
2021/05/05 03:58:55;;;;;;;10.23;5.13;;;;;;;13.13;65.29;99806.63;5027561;28;20406;-22
2021/05/05 04:01:21;;;;;;;7.35;4.93;;;;;;;13.50;64.15;99808.84;5027446;28;20464;-22
2021/05/05 04:03:46;;;;;;;9.25;5.55;;;;;;;13.77;63.29;99808.97;5027515;28;20052;-22
2021/05/05 04:06:12;;;;;;;7.80;4.93;;;;;;;13.44;64.30;99807.94;5027028;28;20033;-22
2021/05/05 04:08:37;;;;;;;8.73;4.80;;;;;;;13.26;64.69;99799.09;5027156;28;20033;-22
2021/05/05 04:11:03;;;;;;;9.30;4.97;;;;;;;13.36;64.95;99792.28;5027452;28;20028;-22
2021/05/05 04:13:29;;;;;;;6.70;4.65;;;;;;;13.32;64.78;99799.19;5027409;28;20025;-21
2021/05/05 04:15:54;;;;;;;7.80;4.70;;;;;;;13.71;63.85;99812.63;5027543;28;20036;-22
2021/05/05 04:18:20;;;;;;;7.43;4.32;;;;;;;13.55;64.53;99812.44;5027554;28;20105;-21
2021/05/05 04:20:45;;;;;;;7.03;4.65;;;;;;;13.44;64.69;99821.34;5027294;28;20025;-21
2021/05/05 04:23:11;;;;;;;10.00;5.32;;;;;;;13.19;65.91;99814.50;5027513;28;20410;-22
2021/05/05 04:25:36;;;;;;;11.52;5.45;;;;;;;12.96;67.40;99825.34;5027269;28;20025;-22
2021/05/05 04:28:02;;;;;;;7.55;4.50;;;;;;;13.03;65.94;99831.34;5027404;28;20034;-21
2021/05/05 04:30:27;;;;;;;9.30;5.88;;;;;;;13.49;65.70;99844.75;5026918;28;20493;-22
2021/05/05 04:32:53;;;;;;;10.80;6.88;;;;;;;13.73;65.09;99853.41;5027196;28;20072;-22
2021/05/05 04:35:19;;;;;;;12.23;8.25;;;;;;;13.34;65.94;99853.31;5027009;28;20041;-21
2021/05/05 04:37:44;;;;;;;11.27;8.25;;;;;;;13.19;67.01;99830.56;5027167;28;20033;-22
2021/05/05 04:40:10;;;;;;;13.30;7.68;;;;;;;13.26;66.08;99847.28;5026961;28;20046;-19
2021/05/05 04:42:36;;;;;;;10.50;6.78;;;;;;;13.34;66.02;99831.91;5027202;28;20037;-22
2021/05/05 04:45:03;;;;;;;8.98;7.55;;;;;;;13.36;65.64;99844.00;5027219;28;20033;-22
2021/05/05 04:47:30;;;;;;;15.35;6.97;;;;;;;13.66;64.59;99846.34;5027034;28;20087;-22
2021/05/05 04:49:56;;;;;;;12.55;7.60;;;;;;;13.71;64.50;99840.28;5026810;28;20559;-22
2021/05/05 04:52:21;;;;;;;11.05;6.90;;;;;;;13.52;65.57;99850.41;5026901;28;20033;-22
2021/05/05 04:54:47;;;;;;;10.25;7.13;;;;;;;13.55;66.25;99859.84;5027184;28;20037;-21
2021/05/05 04:57:12;;;;;;;11.20;7.45;;;;;;;13.46;66.63;99862.09;5026927;28;20033;-22
2021/05/05 04:59:38;;;;;;;18.05;8.73;;;;;;;13.41;66.55;99857.47;5026919;28;20033;-23
2021/05/05 05:02:04;;;;;;;18.50;11.40;;;;;;;13.34;66.73;99880.09;5027006;28;20091;-20
2021/05/05 05:04:30;;;;;;;17.08;11.32;;;;;;;13.52;66.43;99871.03;5027518;28;20045;-21
2021/05/05 05:06:55;;;;;;;17.92;10.40;;;;;;;13.60;65.68;99884.03;5030792;28;20026;-22
2021/05/05 05:09:20;;;;;;;14.60;9.68;;;;;;;13.40;66.79;99889.84;5031054;28;20033;-22
2021/05/05 05:11:46;;;;;;;12.18;8.60;;;;;;;13.60;66.80;99890.19;5030641;28;20033;-22
2021/05/05 05:14:12;;;;;;;15.93;6.97;;;;;;;13.65;65.28;99890.28;5029110;28;20472;-23
2021/05/05 05:16:37;;;;;;;14.93;7.38;;;;;;;13.41;66.82;99896.84;5030660;28;20036;-22
2021/05/05 05:19:03;;;;;;;10.13;6.55;;;;;;;13.25;67.19;99893.06;5030488;28;20041;-22
2021/05/05 05:21:28;;;;;;;11.80;7.28;;;;;;;13.29;67.61;99904.09;5030712;28;20459;-21
2021/05/05 05:23:54;;;;;;;14.30;7.72;;;;;;;13.22;67.74;99913.09;5029363;28;20033;-22
2021/05/05 05:26:19;;;;;;;12.73;8.63;;;;;;;13.32;68.19;99915.19;5030307;28;20021;-23
2021/05/05 05:28:44;;;;;;;10.23;7.80;;;;;;;13.62;66.93;99925.59;5030874;28;20036;-22
2021/05/05 05:31:10;;;;;;;10.50;7.03;;;;;;;13.78;66.24;99924.00;5030248;28;20033;-22
2021/05/05 05:33:35;;;;;;;10.63;6.35;;;;;;;13.66;66.72;99937.44;5030274;28;20041;-21
2021/05/05 05:36:01;;;;;;;10.38;6.57;;;;;;;13.75;65.70;99939.72;5030226;28;20033;-21
2021/05/05 05:38:26;;;;;;;11.30;6.93;;;;;;;13.90;65.39;99931.16;5030445;28;20044;-21
2021/05/05 05:40:52;;;;;;;9.90;6.32;;;;;;;13.81;65.75;99918.16;5030571;28;20790;-22
2021/05/05 05:43:17;;;;;;;10.27;6.93;;;;;;;14.09;65.21;99926.34;5030356;28;20040;-22
2021/05/05 05:45:43;;;;;;;9.85;6.95;;;;;;;14.10;65.60;99920.75;5030182;28;20025;-22
2021/05/05 05:48:09;;;;;;;9.93;7.03;;;;;;;14.46;63.65;99923.91;5030054;28;20437;-22
2021/05/05 05:50:34;;;;;;;14.35;7.60;;;;;;;15.02;62.05;99910.41;5029481;28;20501;-22
2021/05/05 05:53:00;;;;;;;11.55;6.40;;;;;;;15.34;60.13;99909.66;5029943;28;20045;-22
2021/05/05 05:55:29;;;;;;;13.70;7.68;;;;;;;15.75;59.51;99910.88;5030096;28;20242;-22
2021/05/05 05:57:56;;;;;;;23.23;16.88;;;;;;;15.97;58.95;99905.38;5029929;28;20025;-22
2021/05/05 06:00:22;;;;;;;18.83;8.70;;;;;;;15.91;59.06;99879.50;5029477;28;20098;-22
2021/05/05 06:02:47;;;;;;;12.65;7.65;;;;;;;16.13;58.51;99886.66;5029653;28;20021;-22
2021/05/05 06:05:12;;;;;;;14.43;6.78;;;;;;;15.99;58.01;99876.31;5029641;28;20056;-22
2021/05/05 06:07:38;;;;;;;15.63;6.90;;;;;;;15.96;58.28;99859.91;5029800;28;20072;-23
2021/05/05 06:10:05;;;;;;;11.23;6.00;;;;;;;16.06;57.60;99866.16;5029881;28;20478;-22
2021/05/05 06:12:30;;;;;;;13.45;5.65;;;;;;;15.70;58.11;99853.53;5029488;28;20032;-22
2021/05/05 06:14:57;;;;;;;10.25;5.50;;;;;;;15.90;58.32;99877.91;5029461;28;20038;-22
2021/05/05 06:17:23;;;;;;;12.68;7.80;;;;;;;16.23;59.67;99897.47;5028113;28;20079;-22
2021/05/05 06:19:48;;;;;;;18.00;10.10;;;;;;;16.18;59.53;99892.88;5029528;28;20049;-21
2021/05/05 06:22:14;;;;;;;13.23;7.50;;;;;;;15.97;58.20;99873.09;5029083;28;20044;-20
2021/05/05 06:24:39;;;;;;;15.73;6.80;;;;;;;15.95;59.30;99902.13;5029677;28;20762;-20
2021/05/05 06:27:06;;;;;;;9.95;5.53;;;;;;;15.87;57.96;99899.91;5029536;28;20025;-21
2021/05/05 06:29:32;;;;;;;9.65;5.80;;;;;;;15.74;60.28;99916.50;5028564;28;20703;-21
2021/05/05 06:31:58;;;;;;;9.98;6.22;;;;;;;15.38;60.71;99919.63;5029099;28;20613;-21
2021/05/05 06:34:23;;;;;;;8.85;6.07;;;;;;;15.81;59.80;99933.22;5028729;28;20033;-21
2021/05/05 06:36:48;;;;;;;13.20;8.13;;;;;;;15.99;59.49;99915.88;5029084;28;20036;-21
2021/05/05 06:39:14;;;;;;;13.88;8.98;;;;;;;16.36;57.88;99917.72;5029003;28;20033;-22
2021/05/05 06:41:39;;;;;;;12.75;9.23;;;;;;;16.31;58.65;99904.25;5029130;28;20414;-21
2021/05/05 06:44:05;;;;;;;15.50;9.88;;;;;;;16.22;57.59;99898.53;5028935;28;20029;-21
2021/05/05 06:46:32;;;;;;;13.20;8.02;;;;;;;15.92;59.50;99896.47;5028608;28;20100;-22
2021/05/05 06:48:58;;;;;;;12.00;7.25;;;;;;;15.96;58.41;99882.25;5028496;28;20181;-21
2021/05/05 06:51:23;;;;;;;10.40;6.55;;;;;;;15.92;58.58;99902.66;5028838;28;20508;-21
2021/05/05 06:53:49;;;;;;;10.75;6.18;;;;;;;15.56;58.60;99880.81;5028887;28;20135;-22
2021/05/05 06:56:14;;;;;;;11.73;6.43;;;;;;;15.83;58.21;99872.75;5028532;28;20512;-21
2021/05/05 06:58:40;;;;;;;12.90;7.13;;;;;;;15.83;58.21;99877.28;5028782;28;20048;-21
2021/05/05 07:01:05;;;;;;;12.07;6.13;;;;;;;16.12;56.98;99880.47;5028464;28;20025;-20
2021/05/05 07:03:31;;;;;;;8.80;5.55;;;;;;;15.45;56.69;99869.19;5028846;28;20417;-20
2021/05/05 07:05:58;;;;;;;11.85;7.13;;;;;;;15.99;57.58;99876.31;5028985;28;20045;-22
2021/05/05 07:08:24;;;;;;;13.73;8.32;;;;;;;16.00;59.70;99863.72;5028892;28;20030;-20
2021/05/05 07:10:50;;;;;;;10.73;7.57;;;;;;;15.94;58.55;99862.06;5028802;28;20037;-22
2021/05/05 07:13:15;;;;;;;12.50;8.88;;;;;;;15.94;58.46;99857.47;5028393;28;20041;-21
2021/05/05 07:15:41;;;;;;;19.05;11.82;;;;;;;15.80;58.38;99859.00;5028209;28;20029;-21
2021/05/05 07:18:06;;;;;;;16.38;10.18;;;;;;;15.79;58.91;99838.53;5028278;28;20572;-21
2021/05/05 07:20:32;;;;;;;14.23;9.05;;;;;;;16.01;57.86;99846.50;5027975;28;20048;-22
2021/05/05 07:22:57;;;;;;;15.95;8.13;;;;;;;16.03;57.33;99837.09;5028439;28;20033;-22
2021/05/05 07:25:23;;;;;;;11.98;7.82;;;;;;;16.19;55.55;99829.09;5028279;28;20037;-22
2021/05/05 07:27:48;;;;;;;10.95;7.38;;;;;;;16.27;55.33;99812.47;5026351;28;20041;-22
2021/05/05 07:30:14;;;;;;;13.80;7.82;;;;;;;16.42;55.65;99814.41;5027712;28;20021;-21
2021/05/05 07:32:40;;;;;;;14.63;8.18;;;;;;;16.24;55.77;99826.44;5027897;28;20029;-22
2021/05/05 07:35:08;;;;;;;11.65;8.02;;;;;;;16.54;55.13;99833.03;5027932;28;20033;-21
2021/05/05 07:48:12;;;;;;;9.90;7.63;;;;;;;15.97;58.72;99851.56;5043153;28;20047;-21
2021/05/05 07:50:38;;;;;;;10.68;7.18;;;;;;;16.12;56.94;99858.94;5027488;28;20130;-22
2021/05/05 07:53:03;;;;;;;12.55;7.57;;;;;;;16.16;56.35;99851.97;5027594;28;20453;-22
2021/05/05 07:55:29;;;;;;;13.15;8.43;;;;;;;16.39;55.98;99837.28;5027622;28;20548;-21
2021/05/05 07:57:54;;;;;;;9.68;7.30;;;;;;;16.85;54.39;99837.44;5027701;28;20029;-21
2021/05/05 08:00:20;;;;;;;9.90;6.80;;;;;;;16.96;53.92;99850.91;5027346;28;20029;-22
2021/05/05 08:02:46;;;;;;;11.40;7.50;;;;;;;17.21;53.29;99855.56;5027633;28;20040;-21
2021/05/05 08:05:11;;;;;;;9.13;6.55;;;;;;;17.03;52.49;99840.72;5027675;28;20029;-21
2021/05/05 08:07:37;;;;;;;10.90;6.40;;;;;;;17.77;52.18;99844.75;5027404;28;20025;-21
2021/05/05 08:10:04;;;;;;;10.80;7.85;;;;;;;17.80;51.10;99832.63;5026997;28;20091;-20
2021/05/05 08:12:30;;;;;;;14.13;7.63;;;;;;;18.12;50.64;99834.19;5027615;28;20508;-21
2021/05/05 08:14:55;;;;;;;10.82;6.63;;;;;;;18.39;49.58;99842.75;5026458;28;20037;-20
2021/05/05 08:17:21;;;;;;;11.73;6.82;;;;;;;18.54;48.42;99830.28;5027786;28;20804;-20
2021/05/05 08:19:46;;;;;;;10.75;7.22;;;;;;;18.71;49.98;99841.50;5027705;28;20093;-21
2021/05/05 08:22:12;;;;;;;12.70;7.20;;;;;;;18.84;47.48;99824.72;5026994;28;20022;-21
2021/05/05 08:24:38;;;;;;;14.82;6.70;;;;;;;19.15;48.93;99829.94;5027050;28;20094;-21
2021/05/05 08:27:03;;;;;;;11.18;6.57;;;;;;;18.83;47.71;99817.69;5027343;28;20029;-21
2021/05/05 08:29:31;;;;;;;15.60;8.10;;;;;;;19.07;47.71;99811.63;5027190;28;20100;-22
2021/05/05 08:31:57;;;;;;;12.40;7.00;;;;;;;18.93;48.08;99807.94;5027009;28;20033;-21
2021/05/05 08:34:24;;;;;;;10.50;5.95;;;;;;;18.99;47.05;99809.50;5026844;28;20040;-21
2021/05/05 08:36:51;;;;;;;10.77;6.63;;;;;;;19.18;47.89;99802.31;5026930;28;20037;-21
2021/05/05 08:39:16;;;;;;;10.93;6.30;;;;;;;18.62;49.34;99794.59;5027029;28;20525;-21
2021/05/05 08:41:42;;;;;;;11.02;6.55;;;;;;;19.01;48.66;99769.50;5031316;28;20021;-21
2021/05/05 08:44:09;;;;;;;7.88;5.43;;;;;;;19.58;45.67;99772.53;5031511;28;20037;-21
2021/05/05 08:46:36;;;;;;;10.03;5.90;;;;;;;19.90;45.60;99801.72;5031186;28;20078;-21
2021/05/05 08:49:02;;;;;;;7.60;5.35;;;;;;;20.25;45.81;99786.16;5029747;28;20052;-21
2021/05/05 08:51:27;;;;;;;9.50;5.05;;;;;;;20.54;44.75;99809.63;5029770;28;20029;-21
2021/05/05 08:53:53;;;;;;;8.85;5.25;;;;;;;21.04;45.06;99812.72;5029732;28;20033;-21
2021/05/05 08:56:18;;;;;;;7.18;4.40;;;;;;;21.37;44.62;99796.44;5030811;28;20033;-21
2021/05/05 08:58:44;;;;;;;8.48;5.03;;;;;;;21.03;44.77;99797.56;5029802;28;20042;-21
2021/05/05 09:01:09;;;;;;;8.68;4.35;;;;;;;20.38;44.53;99785.44;5030931;28;20100;-20
2021/05/05 09:03:40;;;;;;;6.65;3.90;;;;;;;20.43;43.54;99788.09;5031088;28;20410;-20
2021/05/05 09:06:05;;;;;;;7.50;4.85;;;;;;;20.51;43.99;99783.09;5030836;28;20032;-21
2021/05/05 09:08:31;;;;;;;19.02;11.93;;;;;;;20.44;44.45;99773.44;5030309;28;20033;-21
2021/05/05 09:11:09;;;;;;;7.22;4.80;;;;;;;20.82;44.73;99787.03;5030706;28;20043;-20
2021/05/05 09:13:51;;;;;;;9.90;5.28;;;;;;;21.06;43.47;99780.69;5030957;28;20045;-21
2021/05/05 09:16:21;;;;;;;8.00;4.45;;;;;;;21.04;44.18;99758.47;5030515;28;20060;-20
2021/05/05 09:19:03;;;;;;;9.60;5.05;;;;;;;21.01;45.91;99754.47;5030358;28;20512;-21
2021/05/05 09:21:58;;;;;;;10.02;4.38;;;;;;;21.37;43.61;99761.19;5030626;28;20454;-21
2021/05/05 09:24:25;;;;;;;8.02;3.92;;;;;;;21.41;43.25;99751.34;5029621;28;20116;-21
2021/05/05 09:27:08;;;;;;;6.73;3.87;;;;;;;22.29;43.17;99753.22;5030285;28;20484;-21
2021/05/05 09:29:47;;;;;;;8.93;3.85;;;;;;;22.94;40.79;99730.28;5030513;28;20268;-21
2021/05/05 09:32:15;;;;;;;6.10;4.00;;;;;;;23.10;42.54;99739.69;5030158;28;20493;-20
2021/05/05 09:34:42;;;;;;;5.50;3.60;;;;;;;23.35;39.49;99721.09;5030480;28;20040;-20
2021/05/05 09:37:09;;;;;;;6.70;3.90;;;;;;;23.57;41.29;99721.03;5030455;28;20038;-21
2021/05/05 09:39:38;;;;;;;7.10;3.55;;;;;;;23.43;40.23;99720.34;5030271;28;20848;-20
2021/05/05 09:42:24;;;;;;;7.47;3.25;;;;;;;23.46;39.55;99708.84;5030300;28;20037;-19
2021/05/05 09:45:00;;;;;;;5.10;3.00;;;;;;;23.94;39.54;99718.94;5030284;28;20113;-21
2021/05/05 09:47:50;;;;;;;6.45;3.20;;;;;;;22.60;41.33;99715.31;5030158;28;20025;-20
2021/05/05 09:50:31;;;;;;;4.43;3.00;;;;;;;22.31;40.78;99694.75;5029094;28;20049;-21
2021/05/05 09:53:23;;;;;;;13.38;6.20;;;;;;;23.50;39.83;99701.66;5030002;28;20405;-20
2021/05/05 09:55:58;;;;;;;6.25;3.30;;;;;;;24.06;38.51;99702.78;5029221;28;20034;-20
2021/05/05 09:58:30;;;;;;;6.82;4.72;;;;;;;23.89;38.38;99694.59;5029572;28;20099;-20
2021/05/05 10:01:04;;;;;;;6.78;3.20;;;;;;;23.79;38.50;99694.91;5030117;28;20029;-20
2021/05/05 10:03:44;;;;;;;7.72;3.13;;;;;;;24.34;37.71;99683.44;5029774;28;20079;-20
2021/05/05 10:06:22;;;;;;;4.60;2.95;;;;;;;24.06;38.28;99681.00;5029983;28;20549;-20
2021/05/05 10:08:51;;;;;;;;;;;;;;;24.09;38.56;99678.75;5029833;28;20448;-20
2021/05/05 10:11:21;;;;;;;6.30;2.97;;;;;;;24.64;37.49;99669.97;5029565;28;19917;-20
2021/05/05 10:13:49;;;;;;;7.65;3.40;;;;;;;24.75;35.67;99660.34;5029521;28;20045;-20
2021/05/05 10:16:15;;;;;;;6.95;3.20;;;;;;;24.97;36.74;99677.63;5028186;28;20021;-21
2021/05/05 10:18:42;;;;;;;6.22;3.10;;;;;;;24.35;38.24;99668.69;5029526;28;20390;-21
2021/05/05 10:21:08;;;;;;;5.50;3.03;;;;;;;24.69;36.93;99675.28;5027933;28;20029;-21
2021/05/05 10:23:33;;;;;;;7.35;2.92;;;;;;;24.28;37.86;99679.28;5027981;28;20034;-21
2021/05/05 10:25:59;;;;;;;5.15;3.00;;;;;;;25.00;35.97;99672.31;5011970;28;20101;-21
2021/05/05 10:28:24;;;;;;;6.93;3.08;;;;;;;24.41;36.29;99678.28;5027907;28;20034;-24
2021/05/05 10:30:50;;;;;;;5.95;2.85;;;;;;;24.30;37.46;99670.78;5011352;28;20390;-22
2021/05/05 10:33:24;;;;;;;5.30;2.67;;;;;;;24.57;38.11;99675.13;5011322;28;20406;-22
2021/05/05 10:35:49;;;;;;;5.07;2.60;;;;;;;23.76;39.12;99673.69;5012217;28;20029;-21
2021/05/05 10:38:34;;;;;;;4.90;3.15;;;;;;;23.47;37.71;99666.88;5028871;28;20040;-21
2021/05/05 10:41:10;;;;;;;5.97;2.80;;;;;;;23.99;37.45;99667.06;5029082;28;20025;-22
2021/05/05 10:44:08;;;;;;;5.80;3.25;;;;;;;23.46;37.57;99659.84;5029087;28;20485;-22
2021/05/05 10:46:35;;;;;;;3.92;2.30;;;;;;;23.67;35.90;99643.75;5027087;28;20034;-21
2021/05/05 10:49:11;;;;;;;4.27;2.60;;;;;;;25.11;33.50;99645.50;5027470;28;20052;-21
2021/05/05 10:51:47;;;;;;;5.82;2.70;;;;;;;25.52;34.32;99645.97;5029018;28;20034;-23
2021/05/05 10:54:14;;;;;;;4.40;2.65;;;;;;;25.36;34.54;99646.53;5028319;28;20064;-21
2021/05/05 10:56:39;;;;;;;4.47;2.97;;;;;;;25.45;34.97;99628.19;5028725;28;20026;-22
2021/05/05 10:59:07;;;;;;;5.40;2.65;;;;;;;25.34;35.18;99628.91;5027538;28;20060;-21
2021/05/05 11:01:43;;;;;;;5.55;2.78;;;;;;;24.78;35.61;99613.31;5028561;28;20508;-22
2021/05/05 11:04:13;;;;;;;6.78;2.83;;;;;;;25.15;35.13;99608.25;5028114;28;20116;-21
2021/05/05 11:06:40;;;;;;;5.95;2.95;;;;;;;25.54;36.06;99624.59;5028515;28;20025;-21
2021/05/05 11:09:17;;;;;;;5.05;2.95;;;;;;;25.54;33.94;99619.97;5028453;28;20044;-22
2021/05/05 11:12:02;;;;;;;5.47;2.80;;;;;;;25.99;33.34;99619.38;5028684;28;20494;-21
2021/05/05 11:14:27;;;;;;;5.53;2.50;;;;;;;26.26;32.47;99628.16;5028440;28;20965;-21
2021/05/05 11:17:08;;;;;;;5.07;2.72;;;;;;;26.21;33.68;99620.16;5028769;28;20051;-22
2021/05/05 11:19:40;;;;;;;7.20;2.72;;;;;;;25.83;34.11;99604.69;5028080;28;20038;-21
2021/05/05 11:22:05;;;;;;;4.97;2.80;;;;;;;25.61;36.10;99609.31;5028489;28;20041;-22
2021/05/05 11:24:34;;;;;;;5.20;2.75;;;;;;;25.34;35.28;99607.88;5027975;28;20413;-22
2021/05/05 11:27:03;;;;;;;5.95;2.90;;;;;;;24.35;37.13;99603.28;5028267;28;20543;-21
2021/05/05 11:29:54;;;;;;;5.93;3.00;;;;;;;24.94;37.46;99607.34;5028401;28;20156;-21
2021/05/05 11:32:23;;;;;;;5.93;3.30;;;;;;;25.58;35.93;99599.06;5027933;28;20029;-20
2021/05/05 11:34:49;;;;;;;4.68;2.80;;;;;;;24.56;37.78;99598.00;5028324;28;20033;-22
2021/05/05 11:37:27;;;;;;;5.43;2.88;;;;;;;25.00;37.59;99578.78;5027824;28;20036;-21
2021/05/05 11:39:59;;;;;;;6.20;3.00;;;;;;;25.02;37.52;99590.16;5028335;28;20112;-21